createdAt,value
2019-05-14T00:02:21.409Z,101942.34
2019-05-14T00:04:54.398Z,101939.22
2019-05-14T00:07:27.236Z,101942.91
2019-05-14T00:10:02.501Z,101944.05
2019-05-14T00:12:35.854Z,101945.55
2019-05-14T00:15:12.547Z,101942.48
2019-05-14T00:17:46.959Z,101942.83
2019-05-14T00:20:22.401Z,101943.02
2019-05-14T00:22:56.295Z,101941.39
2019-05-14T00:25:31.761Z,101941.27
2019-05-14T00:28:07.307Z,101937.47
2019-05-14T00:30:42.245Z,101940.36
2019-05-14T00:33:15.582Z,101939.05
2019-05-14T00:35:51.300Z,101933.02
2019-05-14T00:38:25.370Z,101933.55
2019-05-14T00:40:58.470Z,101926.65
2019-05-14T00:43:36.417Z,101928.68
2019-05-14T00:46:14.405Z,101928.17
2019-05-14T00:48:51.441Z,101928.25
2019-05-14T00:51:26.280Z,101929.86
2019-05-14T00:54:02.013Z,101929.82
2019-05-14T00:56:35.876Z,101931.02
2019-05-14T00:59:11.361Z,101934.54
2019-05-14T01:01:52.888Z,101928.27
2019-05-14T01:04:32.274Z,101922.94
2019-05-14T01:07:13.257Z,101924.63
2019-05-14T01:10:01.300Z,101927.28
2019-05-14T01:12:36.438Z,101917.22
2019-05-14T01:15:25.423Z,101915.83
2019-05-14T01:17:59.344Z,101915.30
2019-05-14T01:20:32.699Z,101914.52
2019-05-14T01:23:05.373Z,101913.98
2019-05-14T01:25:42.166Z,101916.57
2019-05-14T01:28:14.988Z,101912.36
2019-05-14T01:30:48.443Z,101914.53
2019-05-14T01:33:22.306Z,101912.47
2019-05-14T01:35:55.516Z,101911.38
2019-05-14T01:38:28.279Z,101913.23
2019-05-14T01:41:02.174Z,101908.66
2019-05-14T01:43:35.938Z,101907.81
2019-05-14T01:46:12.166Z,101906.12
2019-05-14T01:48:45.054Z,101903.52
2019-05-14T01:51:18.289Z,101899.16
2019-05-14T01:53:52.073Z,101895.05
2019-05-14T01:56:24.923Z,101899.08
2019-05-14T01:58:57.512Z,101904.62
2019-05-14T02:01:31.476Z,101901.55
2019-05-14T02:04:07.525Z,101901.13
2019-05-14T02:06:41.346Z,101893.73
2019-05-14T02:09:14.351Z,101880.28
2019-05-14T02:11:46.944Z,101883.14
2019-05-14T02:14:21.625Z,101887.64
2019-05-14T02:16:54.711Z,101893.16
2019-05-14T02:19:27.546Z,101887.33
2019-05-14T02:22:02.063Z,101892.33
2019-05-14T02:24:34.860Z,101894.08
2019-05-14T02:27:07.489Z,101891.35
2019-05-14T02:29:41.668Z,101888.22
2019-05-14T02:32:14.790Z,101886.24
2019-05-14T02:34:50.099Z,101883.79
2019-05-14T02:37:24.168Z,101881.00
2019-05-14T02:39:59.657Z,101885.12
2019-05-14T02:42:34.240Z,101882.14
2019-05-14T02:45:08.932Z,101881.50
2019-05-14T02:47:43.528Z,101885.70
2019-05-14T02:50:19.929Z,101882.38
2019-05-14T02:52:54.278Z,101884.27
2019-05-14T02:55:29.634Z,101884.37
2019-05-14T02:58:03.138Z,101883.21
2019-05-14T03:00:35.731Z,101881.39
2019-05-14T03:03:09.967Z,101883.11
2019-05-14T03:05:42.581Z,101885.41
2019-05-14T03:08:15.186Z,101895.02
2019-05-14T03:10:50.408Z,101895.81
2019-05-14T03:13:23.554Z,101893.06
2019-05-14T03:15:59.046Z,101894.86
2019-05-14T03:18:32.421Z,101895.58
2019-05-14T03:21:04.928Z,101889.53
2019-05-14T03:23:39.388Z,101892.52
2019-05-14T03:26:11.975Z,101892.11
2019-05-14T03:28:49.479Z,101897.94
2019-05-14T03:31:23.206Z,101899.48
2019-05-14T03:34:02.022Z,101900.39
2019-05-14T03:36:36.084Z,101907.06
2019-05-14T03:39:10.577Z,101909.95
2019-05-14T03:41:43.783Z,101912.06
2019-05-14T03:44:19.711Z,101909.77
2019-05-14T03:46:55.511Z,101903.78
2019-05-14T03:49:31.289Z,101911.09
2019-05-14T03:52:03.955Z,101904.55
2019-05-14T03:54:36.578Z,101902.59
2019-05-14T03:57:09.650Z,101898.62
2019-05-14T03:59:42.881Z,101892.88
2019-05-14T04:02:19.607Z,101894.50
2019-05-14T04:04:53.680Z,101892.38
2019-05-14T04:07:26.187Z,101891.47
2019-05-14T04:09:59.778Z,101887.27
2019-05-14T04:12:32.777Z,101895.52
2019-05-14T04:15:09.592Z,101890.71
2019-05-14T04:17:45.582Z,101895.33
2019-05-14T04:20:19.747Z,101898.69
2019-05-14T04:22:52.755Z,101898.47
2019-05-14T04:25:25.268Z,101894.63
2019-05-14T04:27:59.713Z,101890.80
2019-05-14T04:30:33.519Z,101901.23
2019-05-14T04:33:10.366Z,101906.88
2019-05-14T04:35:43.462Z,101907.03
2019-05-14T04:38:15.999Z,101900.11
2019-05-14T04:40:49.408Z,101901.78
2019-05-14T04:43:25.741Z,101895.75
2019-05-14T04:45:59.599Z,101897.17
2019-05-14T04:48:37.539Z,101895.86
2019-05-14T04:51:19.606Z,101897.79
2019-05-14T04:53:54.888Z,101900.63
2019-05-14T04:56:30.128Z,101900.09
2019-05-14T04:59:03.482Z,101903.05
2019-05-14T05:01:39.925Z,101902.16
2019-05-14T05:04:12.912Z,101908.00
2019-05-14T05:06:49.958Z,101903.12
2019-05-14T05:09:29.053Z,101901.88
2019-05-14T05:12:05.268Z,101896.38
2019-05-14T05:15:31.011Z,101885.51
2019-05-14T05:18:18.827Z,101888.76
2019-05-14T05:20:54.225Z,101891.35
2019-05-14T05:23:38.063Z,101880.67
2019-05-14T05:26:13.440Z,101880.46
2019-05-14T05:29:01.759Z,101884.19
2019-05-14T05:31:55.287Z,101888.25
2019-05-14T05:34:28.916Z,101896.62
2019-05-14T05:37:02.276Z,101899.47
2019-05-14T05:39:35.411Z,101898.53
2019-05-14T05:42:09.354Z,101893.11
2019-05-14T05:44:42.331Z,101892.70
2019-05-14T05:47:14.825Z,101891.20
2019-05-14T05:49:49.395Z,101889.58
2019-05-14T05:52:23.975Z,101887.38
2019-05-14T05:54:58.440Z,101884.60
2019-05-14T05:57:32.497Z,101881.05
2019-05-14T06:00:09.418Z,101878.09
2019-05-14T06:02:43.705Z,101880.03
2019-05-14T06:05:18.692Z,101874.44
2019-05-14T06:07:52.322Z,101876.03
2019-05-14T06:10:29.082Z,101869.34
2019-05-14T06:13:02.036Z,101871.05
2019-05-14T06:15:45.552Z,101873.05
2019-05-14T06:18:22.138Z,101875.58
2019-05-14T06:20:58.309Z,101868.89
2019-05-14T06:23:31.545Z,101875.73
2019-05-14T06:26:04.087Z,101873.87
2019-05-14T06:28:40.876Z,101876.47
2019-05-14T06:31:14.716Z,101866.72
2019-05-14T06:33:49.239Z,101867.39
2019-05-14T06:36:22.369Z,101870.44
2019-05-14T06:38:58.436Z,101866.98
2019-05-14T06:41:33.060Z,101864.67
2019-05-14T06:44:09.043Z,101863.75
2019-05-14T06:46:41.864Z,101856.89
2019-05-14T06:49:19.920Z,101854.62
2019-05-14T06:51:53.987Z,101849.70
2019-05-14T06:54:29.116Z,101849.23
2019-05-14T06:57:02.641Z,101849.86
2019-05-14T06:59:38.751Z,101846.64
2019-05-14T07:02:13.743Z,101844.84
2019-05-14T07:04:48.495Z,101845.90
2019-05-14T07:07:23.835Z,101847.80
2019-05-14T07:09:59.999Z,101846.05
2019-05-14T07:12:32.521Z,101844.19
2019-05-14T07:15:09.058Z,101846.16
2019-05-14T07:17:48.792Z,101845.20
2019-05-14T07:20:22.287Z,101843.22
2019-05-14T07:22:55.891Z,101839.45
2019-05-14T07:25:32.407Z,101828.05
2019-05-14T07:28:08.853Z,101825.05
2019-05-14T07:30:42.719Z,101822.37
2019-05-14T07:33:18.204Z,101819.93
2019-05-14T07:38:28.266Z,101819.59
2019-05-14T07:41:01.248Z,101817.25
2019-05-14T07:43:33.785Z,101815.73
2019-05-14T07:46:08.490Z,101815.05
2019-05-14T07:48:43.474Z,101814.99
2019-05-14T07:51:19.022Z,101812.48
2019-05-14T07:53:51.799Z,101815.17
2019-05-14T07:56:24.320Z,101807.23
2019-05-14T07:58:58.549Z,101802.69
2019-05-14T08:01:35.340Z,101811.70
2019-05-14T08:04:11.102Z,101802.05
2019-05-14T08:06:44.711Z,101798.39
2019-05-14T08:09:21.504Z,101802.13
2019-05-14T08:11:55.039Z,101797.06
2019-05-14T08:14:29.428Z,101792.11
2019-05-14T08:17:08.618Z,101794.05
2019-05-14T08:19:41.343Z,101801.64
2019-05-14T08:22:14.861Z,101797.34
2019-05-14T08:24:49.083Z,101794.49
2019-05-14T08:27:27.960Z,101795.06
2019-05-14T08:30:08.215Z,101788.44
2019-05-14T08:32:42.034Z,101789.48
2019-05-14T08:35:14.537Z,101789.80
2019-05-14T08:37:49.250Z,101789.86
2019-05-14T08:40:22.401Z,101791.86
2019-05-14T08:42:58.213Z,101786.09
2019-05-14T08:45:30.952Z,101780.47
2019-05-14T08:48:04.740Z,101778.55
2019-05-14T08:50:41.819Z,101774.98
2019-05-14T08:53:18.572Z,101780.87
2019-05-14T08:55:53.203Z,101781.88
2019-05-14T08:58:30.210Z,101783.30
2019-05-14T09:01:08.287Z,101788.78
2019-05-14T09:03:43.642Z,101780.91
2019-05-14T09:06:18.584Z,101780.03
2019-05-14T09:09:01.316Z,101771.88
2019-05-14T09:11:36.439Z,101765.47
2019-05-14T09:14:22.209Z,101756.17
2019-05-14T09:17:00.163Z,101749.31
2019-05-14T09:19:33.360Z,101744.23
2019-05-14T09:22:09.388Z,101742.91
2019-05-14T09:24:43.364Z,101731.87
2019-05-14T09:27:19.263Z,101725.98
2019-05-14T09:29:55.307Z,101735.70
2019-05-14T09:32:29.351Z,101721.06
2019-05-14T09:35:02.408Z,101720.63
2019-05-14T09:37:35.004Z,101718.00
2019-05-14T09:40:19.496Z,101718.16
2019-05-14T09:42:53.645Z,101716.18
2019-05-14T09:45:28.144Z,101726.98
2019-05-14T09:48:01.448Z,101728.30
2019-05-14T09:50:38.333Z,101725.89
2019-05-14T09:53:12.597Z,101720.00
2019-05-14T09:55:46.340Z,101720.77
2019-05-14T09:58:20.322Z,101712.14
2019-05-14T10:00:58.841Z,101711.87
2019-05-14T10:03:32.853Z,101718.98
2019-05-14T10:06:09.483Z,101723.72
2019-05-14T10:08:44.419Z,101718.13
2019-05-14T10:11:17.574Z,101721.48
2019-05-14T10:13:51.091Z,101707.52
2019-05-14T10:16:23.589Z,101707.50
2019-05-14T10:18:57.008Z,101718.09
2019-05-14T10:21:30.546Z,101720.41
2019-05-14T10:24:03.812Z,101717.30
2019-05-14T10:26:40.918Z,101709.56
2019-05-14T10:29:14.488Z,101718.34
2019-05-14T10:31:48.592Z,101719.75
2019-05-14T10:34:21.329Z,101716.99
2019-05-14T10:36:54.611Z,101718.06
2019-05-14T10:39:29.564Z,101724.21
2019-05-14T10:42:03.049Z,101710.15
2019-05-14T10:44:38.775Z,101696.68
2019-05-14T10:47:13.560Z,101690.27
2019-05-14T10:49:47.275Z,101692.05
2019-05-14T10:52:20.129Z,101693.30
2019-05-14T10:55:04.100Z,101693.41
2019-05-14T10:57:39.071Z,101686.48
2019-05-14T11:00:15.486Z,101673.94
2019-05-14T11:02:53.267Z,101662.66
2019-05-14T11:05:28.215Z,101652.30
2019-05-14T11:08:18.883Z,101650.33
2019-05-14T11:10:54.062Z,101645.19
2019-05-14T11:13:29.293Z,101651.77
2019-05-14T11:16:02.212Z,101649.57
2019-05-14T11:18:39.971Z,101639.95
2019-05-14T11:21:23.049Z,101636.03
2019-05-14T11:23:59.199Z,101631.81
2019-05-14T11:26:32.725Z,101628.62
2019-05-14T11:29:07.864Z,101631.27
2019-05-14T11:31:41.216Z,101629.19
2019-05-14T11:34:19.245Z,101629.44
2019-05-14T11:36:52.117Z,101623.75
2019-05-14T11:39:31.915Z,101625.30
2019-05-14T11:42:05.334Z,101612.89
2019-05-14T11:44:38.774Z,101615.69
2019-05-14T11:47:11.268Z,101609.14
2019-05-14T11:49:45.428Z,101606.47
2019-05-14T11:52:18.605Z,101609.57
2019-05-14T11:54:52.590Z,101608.95
2019-05-14T11:57:25.246Z,101604.06
2019-05-14T11:59:58.716Z,101598.19
2019-05-14T12:02:38.274Z,101593.71
2019-05-14T12:05:13.457Z,101591.36
2019-05-14T12:07:47.076Z,101584.05
2019-05-14T12:10:20.161Z,101585.45
2019-05-14T12:12:54.930Z,101576.94
2019-05-14T12:15:27.692Z,101572.68
2019-05-14T12:18:01.518Z,101574.56
2019-05-14T12:20:35.442Z,101559.73
2019-05-14T12:23:09.029Z,101550.70
2019-05-14T12:25:41.795Z,101544.56
2019-05-14T12:28:14.475Z,101534.48
2019-05-14T12:30:50.663Z,101533.92
2019-05-14T12:33:23.927Z,101531.77
2019-05-14T12:36:00.544Z,101531.54
2019-05-14T12:38:33.839Z,101525.63
2019-05-14T12:41:09.357Z,101530.70
2019-05-14T12:43:43.865Z,101524.68
2019-05-14T12:46:16.864Z,101527.54
2019-05-14T12:48:50.471Z,101518.34
2019-05-14T12:51:24.323Z,101526.80
2019-05-14T12:53:58.280Z,101532.53
2019-05-14T12:56:31.048Z,101529.83
2019-05-14T12:59:04.510Z,101523.20
2019-05-14T13:01:37.728Z,101527.34
2019-05-14T13:04:11.079Z,101528.80
2019-05-14T13:06:43.572Z,101522.40
2019-05-14T13:09:21.587Z,101519.30
2019-05-14T13:11:54.497Z,101502.09
2019-05-14T13:14:28.791Z,101510.12
2019-05-14T13:17:03.969Z,101515.64
2019-05-14T13:19:39.044Z,101506.16
2019-05-14T13:22:15.043Z,101489.87
2019-05-14T13:24:50.940Z,101487.23
2019-05-14T13:27:28.597Z,101499.20
2019-05-14T13:30:04.432Z,101493.58
2019-05-14T13:32:39.486Z,101477.45
2019-05-14T13:35:13.975Z,101479.91
2019-05-14T13:37:49.940Z,101480.23
2019-05-14T13:40:24.982Z,101472.56
2019-05-14T13:42:59.133Z,101467.84
2019-05-14T13:45:31.768Z,101463.31
2019-05-14T13:48:08.510Z,101452.95
2019-05-14T13:50:44.408Z,101471.73
2019-05-14T13:53:19.471Z,101468.02
2019-05-14T13:55:57.544Z,101468.06
2019-05-14T13:58:32.210Z,101462.66
2019-05-14T14:01:12.228Z,101457.97
2019-05-14T14:03:58.447Z,101463.60
2019-05-14T14:06:39.361Z,101459.61
2019-05-14T14:09:13.415Z,101450.20
2019-05-14T14:11:48.243Z,101450.66
2019-05-14T14:14:21.981Z,101446.08
2019-05-14T14:16:54.475Z,101440.22
2019-05-14T14:19:31.598Z,101435.94
2019-05-14T14:22:09.931Z,101435.00
2019-05-14T14:24:49.745Z,101433.58
2019-05-14T14:27:29.922Z,101430.00
2019-05-14T14:30:09.284Z,101427.09
2019-05-14T14:32:45.818Z,101422.58
2019-05-14T14:35:23.316Z,101414.55
2019-05-14T14:37:59.265Z,101421.82
2019-05-14T14:40:33.363Z,101412.67
2019-05-14T14:43:05.978Z,101418.33
2019-05-14T14:45:44.997Z,101414.86
2019-05-14T14:48:20.604Z,101405.91
2019-05-14T14:50:55.154Z,101407.00
2019-05-14T14:53:43.024Z,101407.98
2019-05-14T14:56:25.596Z,101396.04
2019-05-14T14:59:00.290Z,101393.34
2019-05-14T15:01:40.342Z,101389.80
2019-05-14T15:04:40.432Z,101389.69
2019-05-14T15:07:29.456Z,101392.17
2019-05-14T15:10:04.210Z,101389.53
2019-05-14T15:12:40.071Z,101394.03
2019-05-14T15:15:14.345Z,101386.11
2019-05-14T15:17:48.367Z,101379.34
2019-05-14T15:20:22.014Z,101374.80
2019-05-14T15:23:00.051Z,101371.58
2019-05-14T15:25:33.699Z,101372.08
2019-05-14T15:28:09.234Z,101367.10
2019-05-14T15:30:43.894Z,101366.50
2019-05-14T15:33:18.958Z,101359.42
2019-05-14T15:35:51.622Z,101361.77
2019-05-14T15:38:30.254Z,101354.48
2019-05-14T15:41:05.164Z,101356.41
2019-05-14T15:43:39.521Z,101360.23
2019-05-14T15:46:13.467Z,101355.27
2019-05-14T15:48:48.713Z,101348.66
2019-05-14T15:51:23.573Z,101342.85
2019-05-14T15:54:11.137Z,101336.49
2019-05-14T15:56:50.641Z,101331.54
2019-05-14T15:59:23.315Z,101329.20
2019-05-14T16:01:55.938Z,101329.18
2019-05-14T16:04:29.163Z,101334.73
2019-05-14T16:07:02.463Z,101333.84
2019-05-14T16:09:39.758Z,101330.78
2019-05-14T16:12:14.619Z,101333.42
2019-05-14T16:14:49.020Z,101338.11
2019-05-14T16:17:25.319Z,101335.59
2019-05-14T16:19:59.127Z,101336.81
2019-05-14T16:22:31.795Z,101328.09
2019-05-14T16:25:05.104Z,101326.84
2019-05-14T16:27:39.798Z,101326.96
2019-05-14T16:30:16.060Z,101323.23
2019-05-14T16:32:48.707Z,101331.05
2019-05-14T16:35:22.160Z,101329.72
2019-05-14T16:37:54.693Z,101332.17
2019-05-14T16:40:29.689Z,101337.00
2019-05-14T16:43:04.158Z,101331.44
2019-05-14T16:45:39.673Z,101336.71
2019-05-14T16:48:14.104Z,101335.98
2019-05-14T16:50:48.986Z,101336.66
2019-05-14T16:53:25.570Z,101340.45
2019-05-14T16:56:00.371Z,101337.02
2019-05-14T16:58:33.751Z,101334.33
2019-05-14T17:01:09.745Z,101338.00
2019-05-14T17:03:45.064Z,101340.23
2019-05-14T17:06:18.885Z,101338.47
2019-05-14T17:08:51.816Z,101332.66
2019-05-14T17:11:28.237Z,101337.36
2019-05-14T17:14:02.859Z,101335.94
2019-05-14T17:16:36.411Z,101337.36
2019-05-14T17:19:10.805Z,101342.30
2019-05-14T17:21:45.004Z,101339.98
2019-05-14T17:24:20.027Z,101338.46
2019-05-14T17:26:54.283Z,101336.84
2019-05-14T17:29:28.626Z,101341.52
2019-05-14T17:32:02.960Z,101339.22
2019-05-14T17:34:38.685Z,101336.66
2019-05-14T17:37:12.845Z,101339.52
2019-05-14T17:39:45.848Z,101337.68
2019-05-14T17:42:19.379Z,101332.31
2019-05-14T17:44:59.526Z,101330.88
2019-05-14T17:47:32.067Z,101329.66
2019-05-14T17:50:06.187Z,101332.28
2019-05-14T17:52:44.303Z,101330.58
2019-05-14T17:55:19.050Z,101332.80
2019-05-14T17:57:58.240Z,101331.44
2019-05-14T18:00:33.281Z,101331.55
2019-05-14T18:03:09.558Z,101325.45
2019-05-14T18:05:44.212Z,101327.23
2019-05-14T18:08:19.158Z,101327.15
2019-05-14T18:10:52.331Z,101325.80
2019-05-14T18:13:24.949Z,101321.27
2019-05-14T18:15:58.098Z,101326.91
2019-05-14T18:18:33.180Z,101326.67
2019-05-14T18:21:05.808Z,101327.44
2019-05-14T18:23:42.121Z,101325.45
2019-05-14T18:26:22.546Z,101323.09
2019-05-14T18:28:58.429Z,101324.87
2019-05-14T18:31:44.498Z,101326.38
2019-05-14T18:34:19.418Z,101323.47
2019-05-14T18:36:55.413Z,101322.52
2019-05-14T18:39:29.726Z,101323.33
2019-05-14T18:42:02.613Z,101327.39
2019-05-14T18:44:35.428Z,101327.99
2019-05-14T18:47:09.024Z,101328.22
2019-05-14T18:49:41.729Z,101332.37
2019-05-14T18:52:15.257Z,101330.35
2019-05-14T18:54:48.817Z,101329.04
2019-05-14T18:57:23.389Z,101326.38
2019-05-14T18:59:58.974Z,101325.70
2019-05-14T19:02:33.483Z,101327.86
2019-05-14T19:05:09.047Z,101326.22
2019-05-14T19:07:43.092Z,101327.20
2019-05-14T19:10:18.543Z,101324.19
2019-05-14T19:12:51.557Z,101322.98
2019-05-14T19:15:27.718Z,101315.92
2019-05-14T19:18:01.414Z,101316.70
2019-05-14T19:20:34.635Z,101320.94
2019-05-14T19:23:14.522Z,101314.89
2019-05-14T19:25:48.331Z,101318.22
2019-05-14T19:28:21.219Z,101317.47
2019-05-14T19:30:56.097Z,101313.98
2019-05-14T19:33:34.999Z,101312.48
2019-05-14T19:36:08.816Z,101317.47
2019-05-14T19:38:43.607Z,101319.09
2019-05-14T19:41:20.970Z,101316.67
2019-05-14T19:43:56.386Z,101320.47
2019-05-14T19:46:33.239Z,101321.56
2019-05-14T19:49:19.704Z,101325.86
2019-05-14T19:51:52.415Z,101323.88
2019-05-14T19:54:25.111Z,101318.77
2019-05-14T19:57:00.942Z,101320.97
2019-05-14T19:59:34.407Z,101317.74
2019-05-14T20:02:09.543Z,101313.62
2019-05-14T20:04:43.275Z,101323.52
2019-05-14T20:07:18.069Z,101322.25
2019-05-14T20:09:51.703Z,101323.09
2019-05-14T20:12:24.409Z,101324.16
2019-05-14T20:14:58.352Z,101321.92
2019-05-14T20:17:31.229Z,101318.84
2019-05-14T20:20:05.656Z,101318.08
2019-05-14T20:22:39.882Z,101322.91
2019-05-14T20:25:14.128Z,101329.85
2019-05-14T20:27:50.536Z,101331.63
2019-05-14T20:30:24.944Z,101329.45
2019-05-14T20:33:08.400Z,101326.92
2019-05-14T20:35:48.478Z,101325.63
2019-05-14T20:38:27.348Z,101317.28
2019-05-14T20:41:03.226Z,101317.48
2019-05-14T20:43:38.907Z,101314.89
2019-05-14T20:46:13.304Z,101319.80
2019-05-14T20:48:48.435Z,101314.22
2019-05-14T20:51:21.843Z,101311.72
2019-05-14T20:53:55.280Z,101313.10
2019-05-14T20:56:28.388Z,101313.98
2019-05-14T20:59:01.848Z,101313.97
2019-05-14T21:01:35.754Z,101313.83
2019-05-14T21:04:10.755Z,101311.34
2019-05-14T21:06:49.482Z,101312.10
2019-05-14T21:09:32.532Z,101308.42
2019-05-14T21:12:08.379Z,101307.44
2019-05-14T21:14:44.689Z,101305.36
2019-05-14T21:17:19.288Z,101305.11
2019-05-14T21:19:53.459Z,101303.09
2019-05-14T21:22:29.056Z,101304.16
2019-05-14T21:25:05.440Z,101305.73
2019-05-14T21:27:47.878Z,101302.74
2019-05-14T21:30:23.700Z,101297.77
2019-05-14T21:33:00.417Z,101303.61
2019-05-14T21:35:35.890Z,101299.05
2019-05-14T21:38:10.308Z,101301.07
2019-05-14T21:40:45.222Z,101298.73
2019-05-14T21:43:18.996Z,101297.14
2019-05-14T21:45:58.637Z,101294.52
2019-05-14T21:48:38.738Z,101296.19
2019-05-14T21:51:13.878Z,101294.16
2019-05-14T21:53:48.264Z,101291.22
2019-05-14T21:56:22.285Z,101288.38
2019-05-14T21:59:18.935Z,101292.75
2019-05-14T22:02:03.808Z,101286.93
2019-05-14T22:04:42.205Z,101284.37
2019-05-14T22:07:18.495Z,101285.53
2019-05-14T22:09:55.605Z,101284.97
2019-05-14T22:12:39.669Z,101286.30
2019-05-14T22:15:18.474Z,101286.27
2019-05-14T22:18:20.074Z,101283.75
2019-05-14T22:20:55.256Z,101284.79
2019-05-14T22:23:29.631Z,101282.46
2019-05-14T22:26:03.683Z,101281.95
2019-05-14T22:28:37.720Z,101282.81
2019-05-14T22:31:11.902Z,101279.95
2019-05-14T22:33:45.874Z,101274.96
2019-05-14T22:36:21.377Z,101275.89
2019-05-14T22:38:57.942Z,101273.38
2019-05-14T22:41:33.071Z,101272.30
2019-05-14T22:44:09.532Z,101272.17
2019-05-14T22:46:43.877Z,101275.61
2019-05-14T22:49:19.117Z,101270.57
2019-05-14T22:51:52.508Z,101271.20
2019-05-14T22:54:25.447Z,101267.84
2019-05-14T22:56:59.002Z,101266.48
2019-05-14T22:59:32.908Z,101266.20
2019-05-14T23:02:08.422Z,101263.98
2019-05-14T23:04:44.359Z,101259.24
2019-05-14T23:07:18.984Z,101258.87
2019-05-14T23:09:53.607Z,101259.41
2019-05-14T23:12:28.580Z,101262.72
2019-05-14T23:15:03.180Z,101265.03
2019-05-14T23:17:38.810Z,101260.09
2019-05-14T23:20:12.708Z,101262.94
2019-05-14T23:22:49.214Z,101261.02
2019-05-14T23:25:25.359Z,101260.81
2019-05-14T23:27:58.951Z,101258.91
2019-05-14T23:30:32.811Z,101257.22
2019-05-14T23:33:07.312Z,101257.37
2019-05-14T23:35:40.005Z,101251.75
2019-05-14T23:38:12.681Z,101250.72
2019-05-14T23:40:45.324Z,101247.55
2019-05-14T23:43:18.584Z,101241.10
2019-05-14T23:45:52.128Z,101247.39
2019-05-14T23:48:24.645Z,101243.56
2019-05-14T23:50:58.483Z,101238.33
2019-05-14T23:53:31.850Z,101238.31
2019-05-14T23:56:05.075Z,101245.02
2019-05-14T23:58:37.683Z,101237.61
